sensor_id;sensor_type;location;lat;lon;timestamp;temperature;humidity
52267;DHT22;38223;50.940;4.034;2022-08-19T00:00:38;21.60;99.90
52267;DHT22;38223;50.940;4.034;2022-08-19T00:03:10;21.50;99.90
52267;DHT22;38223;50.940;4.034;2022-08-19T00:05:45;21.60;99.90
52267;DHT22;38223;50.940;4.034;2022-08-19T00:08:20;21.60;99.90
52267;DHT22;38223;50.940;4.034;2022-08-19T00:10:47;21.60;99.90
52267;DHT22;38223;50.940;4.034;2022-08-19T00:13:19;21.50;99.90
52267;DHT22;38223;50.940;4.034;2022-08-19T00:15:56;21.70;99.90
52267;DHT22;38223;50.940;4.034;2022-08-19T00:18:26;21.60;99.90
52267;DHT22;38223;50.940;4.034;2022-08-19T00:21:01;21.60;99.90
52267;DHT22;38223;50.940;4.034;2022-08-19T00:23:31;21.60;99.90
52267;DHT22;38223;50.940;4.034;2022-08-19T00:26:07;21.90;99.90
52267;DHT22;38223;50.940;4.034;2022-08-19T00:28:43;21.90;99.90
52267;DHT22;38223;50.940;4.034;2022-08-19T00:31:13;21.90;99.90
52267;DHT22;38223;50.940;4.034;2022-08-19T00:33:47;22.10;99.90
52267;DHT22;38223;50.940;4.034;2022-08-19T00:36:17;22.00;99.90
52267;DHT22;38223;50.940;4.034;2022-08-19T00:38:48;21.80;99.90
52267;DHT22;38223;50.940;4.034;2022-08-19T00:41:23;21.70;99.90
52267;DHT22;38223;50.940;4.034;2022-08-19T00:43:59;21.70;99.90
52267;DHT22;38223;50.940;4.034;2022-08-19T00:46:33;21.60;99.90
52267;DHT22;38223;50.940;4.034;2022-08-19T00:49:06;21.50;99.90
52267;DHT22;38223;50.940;4.034;2022-08-19T00:51:36;21.50;99.90
52267;DHT22;38223;50.940;4.034;2022-08-19T00:54:08;21.50;99.90
52267;DHT22;38223;50.940;4.034;2022-08-19T00:56:41;21.50;99.90
52267;DHT22;38223;50.940;4.034;2022-08-19T00:59:15;21.40;99.90
52267;DHT22;38223;50.940;4.034;2022-08-19T01:01:49;21.50;99.90
52267;DHT22;38223;50.940;4.034;2022-08-19T01:04:18;21.60;99.90
52267;DHT22;38223;50.940;4.034;2022-08-19T01:06:50;21.60;99.90
52267;DHT22;38223;50.940;4.034;2022-08-19T01:09:23;21.50;99.90
52267;DHT22;38223;50.940;4.034;2022-08-19T01:11:58;21.50;99.90
52267;DHT22;38223;50.940;4.034;2022-08-19T01:14:28;21.50;99.90
52267;DHT22;38223;50.940;4.034;2022-08-19T01:17:02;21.40;99.90
52267;DHT22;38223;50.940;4.034;2022-08-19T01:19:33;21.40;99.90
52267;DHT22;38223;50.940;4.034;2022-08-19T01:22:05;21.30;99.90
52267;DHT22;38223;50.940;4.034;2022-08-19T01:24:38;21.40;99.90
52267;DHT22;38223;50.940;4.034;2022-08-19T01:27:12;21.30;99.90
52267;DHT22;38223;50.940;4.034;2022-08-19T01:29:45;21.20;99.90
52267;DHT22;38223;50.940;4.034;2022-08-19T01:32:17;21.20;99.90
52267;DHT22;38223;50.940;4.034;2022-08-19T01:34:47;21.20;99.90
52267;DHT22;38223;50.940;4.034;2022-08-19T01:37:20;21.20;99.90
52267;DHT22;38223;50.940;4.034;2022-08-19T01:39:50;21.20;99.90
52267;DHT22;38223;50.940;4.034;2022-08-19T01:42:22;21.00;99.90
52267;DHT22;38223;50.940;4.034;2022-08-19T01:44:55;21.10;99.90
52267;DHT22;38223;50.940;4.034;2022-08-19T01:47:28;21.30;99.90
52267;DHT22;38223;50.940;4.034;2022-08-19T01:49:59;21.30;99.90
52267;DHT22;38223;50.940;4.034;2022-08-19T01:52:34;21.30;99.90
52267;DHT22;38223;50.940;4.034;2022-08-19T01:55:10;21.30;99.90
52267;DHT22;38223;50.940;4.034;2022-08-19T01:57:44;21.20;99.90
52267;DHT22;38223;50.940;4.034;2022-08-19T02:00:16;21.20;99.90
52267;DHT22;38223;50.940;4.034;2022-08-19T02:02:49;21.10;99.90
52267;DHT22;38223;50.940;4.034;2022-08-19T02:05:18;21.10;99.90
52267;DHT22;38223;50.940;4.034;2022-08-19T02:07:52;21.00;99.90
52267;DHT22;38223;50.940;4.034;2022-08-19T02:10:23;20.90;99.90
52267;DHT22;38223;50.940;4.034;2022-08-19T02:12:55;20.80;99.90
52267;DHT22;38223;50.940;4.034;2022-08-19T02:15:30;20.90;99.90
52267;DHT22;38223;50.940;4.034;2022-08-19T02:17:59;20.70;99.90
52267;DHT22;38223;50.940;4.034;2022-08-19T02:20:30;20.60;99.90
52267;DHT22;38223;50.940;4.034;2022-08-19T02:23:19;20.60;99.90
52267;DHT22;38223;50.940;4.034;2022-08-19T02:25:50;20.70;99.90
52267;DHT22;38223;50.940;4.034;2022-08-19T02:28:25;20.80;99.90
52267;DHT22;38223;50.940;4.034;2022-08-19T02:30:57;20.60;99.90
52267;DHT22;38223;50.940;4.034;2022-08-19T02:33:32;20.40;99.90
52267;DHT22;38223;50.940;4.034;2022-08-19T02:36:05;20.40;99.90
52267;DHT22;38223;50.940;4.034;2022-08-19T02:38:37;20.40;99.90
52267;DHT22;38223;50.940;4.034;2022-08-19T02:41:17;20.40;99.90
52267;DHT22;38223;50.940;4.034;2022-08-19T02:43:42;20.20;99.90
52267;DHT22;38223;50.940;4.034;2022-08-19T02:46:24;20.20;99.90
52267;DHT22;38223;50.940;4.034;2022-08-19T02:48:56;20.30;99.90
52267;DHT22;38223;50.940;4.034;2022-08-19T02:51:31;20.20;99.90
52267;DHT22;38223;50.940;4.034;2022-08-19T02:54:03;20.10;99.90
52267;DHT22;38223;50.940;4.034;2022-08-19T02:56:36;20.30;99.90
52267;DHT22;38223;50.940;4.034;2022-08-19T02:59:09;20.30;99.90
52267;DHT22;38223;50.940;4.034;2022-08-19T03:01:42;20.40;99.90
52267;DHT22;38223;50.940;4.034;2022-08-19T03:04:16;20.30;99.90
52267;DHT22;38223;50.940;4.034;2022-08-19T03:06:48;20.40;99.90
52267;DHT22;38223;50.940;4.034;2022-08-19T03:09:23;20.30;99.90
52267;DHT22;38223;50.940;4.034;2022-08-19T03:11:59;20.20;99.90
52267;DHT22;38223;50.940;4.034;2022-08-19T03:14:26;20.30;99.90
52267;DHT22;38223;50.940;4.034;2022-08-19T03:16:58;20.20;99.90
52267;DHT22;38223;50.940;4.034;2022-08-19T03:19:28;20.20;99.90
52267;DHT22;38223;50.940;4.034;2022-08-19T03:22:04;20.20;99.90
52267;DHT22;38223;50.940;4.034;2022-08-19T03:24:33;20.20;99.90
52267;DHT22;38223;50.940;4.034;2022-08-19T03:27:06;20.30;99.90
52267;DHT22;38223;50.940;4.034;2022-08-19T03:29:39;20.30;99.90
52267;DHT22;38223;50.940;4.034;2022-08-19T03:32:13;20.10;99.90
52267;DHT22;38223;50.940;4.034;2022-08-19T03:34:46;19.90;99.90
52267;DHT22;38223;50.940;4.034;2022-08-19T03:37:17;19.90;99.90
52267;DHT22;38223;50.940;4.034;2022-08-19T03:39:47;20.00;99.90
52267;DHT22;38223;50.940;4.034;2022-08-19T03:42:22;20.00;99.90
52267;DHT22;38223;50.940;4.034;2022-08-19T03:44:53;20.10;99.90
52267;DHT22;38223;50.940;4.034;2022-08-19T03:47:27;19.90;99.90
52267;DHT22;38223;50.940;4.034;2022-08-19T03:50:04;20.00;99.90
52267;DHT22;38223;50.940;4.034;2022-08-19T03:52:37;19.90;99.90
52267;DHT22;38223;50.940;4.034;2022-08-19T03:55:08;19.90;99.90
52267;DHT22;38223;50.940;4.034;2022-08-19T03:57:42;19.90;99.90
52267;DHT22;38223;50.940;4.034;2022-08-19T04:00:14;19.90;99.90
52267;DHT22;38223;50.940;4.034;2022-08-19T04:02:52;20.00;99.90
52267;DHT22;38223;50.940;4.034;2022-08-19T04:05:25;20.10;99.90
52267;DHT22;38223;50.940;4.034;2022-08-19T04:07:54;20.00;99.90
52267;DHT22;38223;50.940;4.034;2022-08-19T04:10:26;20.00;99.90
52267;DHT22;38223;50.940;4.034;2022-08-19T04:12:58;19.80;99.90
52267;DHT22;38223;50.940;4.034;2022-08-19T04:15:30;20.00;99.90
52267;DHT22;38223;50.940;4.034;2022-08-19T04:18:00;19.90;99.90
52267;DHT22;38223;50.940;4.034;2022-08-19T04:20:43;20.00;99.90
52267;DHT22;38223;50.940;4.034;2022-08-19T04:23:05;19.90;99.90
52267;DHT22;38223;50.940;4.034;2022-08-19T04:25:41;19.80;99.90
52267;DHT22;38223;50.940;4.034;2022-08-19T04:28:16;19.80;99.90
52267;DHT22;38223;50.940;4.034;2022-08-19T04:30:52;19.70;99.90
52267;DHT22;38223;50.940;4.034;2022-08-19T04:33:24;19.70;99.90
52267;DHT22;38223;50.940;4.034;2022-08-19T04:36:03;19.60;99.90
52267;DHT22;38223;50.940;4.034;2022-08-19T04:38:31;19.60;99.90
52267;DHT22;38223;50.940;4.034;2022-08-19T04:41:02;19.40;99.90
52267;DHT22;38223;50.940;4.034;2022-08-19T04:43:49;19.40;99.90
52267;DHT22;38223;50.940;4.034;2022-08-19T04:46:19;19.50;99.90
52267;DHT22;38223;50.940;4.034;2022-08-19T04:48:57;19.60;99.90
52267;DHT22;38223;50.940;4.034;2022-08-19T04:51:27;19.40;99.90
52267;DHT22;38223;50.940;4.034;2022-08-19T04:54:01;19.30;99.90
52267;DHT22;38223;50.940;4.034;2022-08-19T04:56:33;19.20;99.90
52267;DHT22;38223;50.940;4.034;2022-08-19T04:59:09;19.00;99.90
52267;DHT22;38223;50.940;4.034;2022-08-19T05:01:42;19.00;99.90
52267;DHT22;38223;50.940;4.034;2022-08-19T05:04:11;19.00;99.90
52267;DHT22;38223;50.940;4.034;2022-08-19T05:06:40;19.10;99.90
52267;DHT22;38223;50.940;4.034;2022-08-19T05:09:12;19.20;99.90
52267;DHT22;38223;50.940;4.034;2022-08-19T05:11:45;19.10;99.90
52267;DHT22;38223;50.940;4.034;2022-08-19T05:14:16;19.20;99.90
52267;DHT22;38223;50.940;4.034;2022-08-19T05:16:48;19.30;99.90
52267;DHT22;38223;50.940;4.034;2022-08-19T05:19:20;19.20;99.90
52267;DHT22;38223;50.940;4.034;2022-08-19T05:22:09;19.20;99.90
52267;DHT22;38223;50.940;4.034;2022-08-19T05:24:55;19.10;99.90
52267;DHT22;38223;50.940;4.034;2022-08-19T05:27:26;19.00;99.90
52267;DHT22;38223;50.940;4.034;2022-08-19T05:30:01;19.10;99.90
52267;DHT22;38223;50.940;4.034;2022-08-19T05:32:33;19.10;99.90
52267;DHT22;38223;50.940;4.034;2022-08-19T05:35:07;19.00;99.90
52267;DHT22;38223;50.940;4.034;2022-08-19T05:37:39;19.10;99.90
52267;DHT22;38223;50.940;4.034;2022-08-19T05:40:11;19.10;99.90
52267;DHT22;38223;50.940;4.034;2022-08-19T05:42:43;19.30;99.90
52267;DHT22;38223;50.940;4.034;2022-08-19T05:45:17;19.40;99.90
52267;DHT22;38223;50.940;4.034;2022-08-19T05:47:48;19.50;99.90
52267;DHT22;38223;50.940;4.034;2022-08-19T05:50:20;19.40;99.90
52267;DHT22;38223;50.940;4.034;2022-08-19T05:52:53;19.40;99.90
52267;DHT22;38223;50.940;4.034;2022-08-19T05:55:27;19.50;99.90
52267;DHT22;38223;50.940;4.034;2022-08-19T05:57:59;19.60;99.90
52267;DHT22;38223;50.940;4.034;2022-08-19T06:00:32;19.60;99.90
52267;DHT22;38223;50.940;4.034;2022-08-19T06:03:02;19.80;99.90
52267;DHT22;38223;50.940;4.034;2022-08-19T06:05:37;19.90;99.90
52267;DHT22;38223;50.940;4.034;2022-08-19T06:08:08;20.10;99.90
52267;DHT22;38223;50.940;4.034;2022-08-19T06:10:40;20.30;99.90
52267;DHT22;38223;50.940;4.034;2022-08-19T06:13:13;20.40;99.90
52267;DHT22;38223;50.940;4.034;2022-08-19T06:15:46;20.30;99.90
52267;DHT22;38223;50.940;4.034;2022-08-19T06:18:18;20.20;99.90
52267;DHT22;38223;50.940;4.034;2022-08-19T06:20:52;20.30;99.90
52267;DHT22;38223;50.940;4.034;2022-08-19T06:23:26;20.20;99.90
52267;DHT22;38223;50.940;4.034;2022-08-19T06:25:56;20.20;99.90
52267;DHT22;38223;50.940;4.034;2022-08-19T06:28:28;20.20;99.90
52267;DHT22;38223;50.940;4.034;2022-08-19T06:31:05;20.30;99.90
52267;DHT22;38223;50.940;4.034;2022-08-19T06:33:35;20.40;99.90
52267;DHT22;38223;50.940;4.034;2022-08-19T06:36:07;20.40;99.90
52267;DHT22;38223;50.940;4.034;2022-08-19T06:38:40;20.60;99.90
52267;DHT22;38223;50.940;4.034;2022-08-19T06:41:15;20.60;99.90
52267;DHT22;38223;50.940;4.034;2022-08-19T06:46:38;20.50;99.90
52267;DHT22;38223;50.940;4.034;2022-08-19T06:49:11;20.30;99.90
52267;DHT22;38223;50.940;4.034;2022-08-19T06:51:44;20.30;99.90
52267;DHT22;38223;50.940;4.034;2022-08-19T06:54:16;20.10;99.90
52267;DHT22;38223;50.940;4.034;2022-08-19T06:56:52;20.00;99.90
52267;DHT22;38223;50.940;4.034;2022-08-19T06:59:26;20.00;99.90
52267;DHT22;38223;50.940;4.034;2022-08-19T07:02:05;20.00;99.90
52267;DHT22;38223;50.940;4.034;2022-08-19T07:04:38;20.00;99.90
52267;DHT22;38223;50.940;4.034;2022-08-19T07:07:13;20.30;99.90
52267;DHT22;38223;50.940;4.034;2022-08-19T07:09:45;20.50;99.90
52267;DHT22;38223;50.940;4.034;2022-08-19T07:12:18;20.50;99.90
52267;DHT22;38223;50.940;4.034;2022-08-19T07:14:47;20.60;99.90
52267;DHT22;38223;50.940;4.034;2022-08-19T07:17:19;20.60;99.90
52267;DHT22;38223;50.940;4.034;2022-08-19T07:19:48;20.70;99.90
52267;DHT22;38223;50.940;4.034;2022-08-19T07:22:19;20.80;99.90
52267;DHT22;38223;50.940;4.034;2022-08-19T07:24:49;20.90;99.90
52267;DHT22;38223;50.940;4.034;2022-08-19T07:27:24;21.00;99.90
52267;DHT22;38223;50.940;4.034;2022-08-19T07:29:54;21.00;99.90
52267;DHT22;38223;50.940;4.034;2022-08-19T07:32:26;20.90;99.90
52267;DHT22;38223;50.940;4.034;2022-08-19T07:34:59;20.80;99.90
52267;DHT22;38223;50.940;4.034;2022-08-19T07:37:29;20.80;99.90
52267;DHT22;38223;50.940;4.034;2022-08-19T07:40:00;20.90;99.90
52267;DHT22;38223;50.940;4.034;2022-08-19T07:42:35;20.90;99.90
52267;DHT22;38223;50.940;4.034;2022-08-19T07:45:06;21.00;99.90
52267;DHT22;38223;50.940;4.034;2022-08-19T07:47:43;21.00;99.90
52267;DHT22;38223;50.940;4.034;2022-08-19T07:50:14;20.90;99.90
52267;DHT22;38223;50.940;4.034;2022-08-19T07:52:47;20.90;99.90
52267;DHT22;38223;50.940;4.034;2022-08-19T07:55:21;20.90;99.90
52267;DHT22;38223;50.940;4.034;2022-08-19T07:57:49;21.00;99.90
52267;DHT22;38223;50.940;4.034;2022-08-19T08:00:20;21.00;99.90
52267;DHT22;38223;50.940;4.034;2022-08-19T08:02:52;21.00;99.90
52267;DHT22;38223;50.940;4.034;2022-08-19T08:05:28;21.00;99.90
52267;DHT22;38223;50.940;4.034;2022-08-19T08:08:12;20.90;99.90
52267;DHT22;38223;50.940;4.034;2022-08-19T08:11:02;21.00;99.90
52267;DHT22;38223;50.940;4.034;2022-08-19T08:13:35;20.90;99.90
52267;DHT22;38223;50.940;4.034;2022-08-19T08:16:09;20.90;99.90
52267;DHT22;38223;50.940;4.034;2022-08-19T08:18:43;20.90;99.90
52267;DHT22;38223;50.940;4.034;2022-08-19T08:21:18;20.90;99.90
52267;DHT22;38223;50.940;4.034;2022-08-19T08:23:49;20.90;99.90
52267;DHT22;38223;50.940;4.034;2022-08-19T08:26:20;21.00;99.90
52267;DHT22;38223;50.940;4.034;2022-08-19T08:28:52;21.10;99.90
52267;DHT22;38223;50.940;4.034;2022-08-19T08:31:34;21.20;99.90
52267;DHT22;38223;50.940;4.034;2022-08-19T08:34:05;21.40;99.90
52267;DHT22;38223;50.940;4.034;2022-08-19T08:36:42;21.40;99.90
52267;DHT22;38223;50.940;4.034;2022-08-19T08:39:18;21.50;99.90
52267;DHT22;38223;50.940;4.034;2022-08-19T08:42:10;21.50;99.90
52267;DHT22;38223;50.940;4.034;2022-08-19T08:45:00;21.50;99.90
52267;DHT22;38223;50.940;4.034;2022-08-19T08:47:36;21.50;99.90
52267;DHT22;38223;50.940;4.034;2022-08-19T08:50:16;21.50;99.90
52267;DHT22;38223;50.940;4.034;2022-08-19T08:52:49;21.70;99.90
52267;DHT22;38223;50.940;4.034;2022-08-19T08:55:24;21.70;99.90
52267;DHT22;38223;50.940;4.034;2022-08-19T08:58:07;21.80;99.90
52267;DHT22;38223;50.940;4.034;2022-08-19T09:00:38;21.90;99.90
52267;DHT22;38223;50.940;4.034;2022-08-19T09:03:27;22.00;99.90
52267;DHT22;38223;50.940;4.034;2022-08-19T09:06:14;21.80;99.90
52267;DHT22;38223;50.940;4.034;2022-08-19T09:14:45;21.90;99.90
52267;DHT22;38223;50.940;4.034;2022-08-19T09:17:11;21.80;99.90
52267;DHT22;38223;50.940;4.034;2022-08-19T09:19:57;21.90;99.90
52267;DHT22;38223;50.940;4.034;2022-08-19T09:22:28;21.90;99.90
52267;DHT22;38223;50.940;4.034;2022-08-19T09:27:52;21.90;99.90
52267;DHT22;38223;50.940;4.034;2022-08-19T09:30:26;21.90;99.90
52267;DHT22;38223;50.940;4.034;2022-08-19T09:33:01;22.00;99.90
52267;DHT22;38223;50.940;4.034;2022-08-19T09:35:32;22.10;99.90
52267;DHT22;38223;50.940;4.034;2022-08-19T09:38:07;22.10;99.90
52267;DHT22;38223;50.940;4.034;2022-08-19T09:40:44;22.10;99.90
52267;DHT22;38223;50.940;4.034;2022-08-19T09:43:16;22.20;99.90
52267;DHT22;38223;50.940;4.034;2022-08-19T09:45:45;22.10;99.90
52267;DHT22;38223;50.940;4.034;2022-08-19T09:48:17;22.10;99.90
52267;DHT22;38223;50.940;4.034;2022-08-19T09:50:48;22.00;99.90
52267;DHT22;38223;50.940;4.034;2022-08-19T09:53:19;22.00;99.90
52267;DHT22;38223;50.940;4.034;2022-08-19T09:55:57;22.00;99.90
52267;DHT22;38223;50.940;4.034;2022-08-19T09:58:29;22.10;99.90
52267;DHT22;38223;50.940;4.034;2022-08-19T10:01:02;22.20;99.90
52267;DHT22;38223;50.940;4.034;2022-08-19T10:03:36;22.00;99.90
52267;DHT22;38223;50.940;4.034;2022-08-19T10:06:08;22.00;99.90
52267;DHT22;38223;50.940;4.034;2022-08-19T10:08:39;22.10;99.90
52267;DHT22;38223;50.940;4.034;2022-08-19T10:11:15;22.10;99.90
52267;DHT22;38223;50.940;4.034;2022-08-19T10:13:47;22.10;99.90
52267;DHT22;38223;50.940;4.034;2022-08-19T10:16:23;22.10;99.90
52267;DHT22;38223;50.940;4.034;2022-08-19T10:18:52;22.10;99.90
52267;DHT22;38223;50.940;4.034;2022-08-19T10:21:26;22.10;99.90
52267;DHT22;38223;50.940;4.034;2022-08-19T10:23:59;22.10;99.90
52267;DHT22;38223;50.940;4.034;2022-08-19T10:26:30;22.10;99.90
52267;DHT22;38223;50.940;4.034;2022-08-19T10:29:01;22.10;99.90
52267;DHT22;38223;50.940;4.034;2022-08-19T10:31:34;22.20;99.90
52267;DHT22;38223;50.940;4.034;2022-08-19T10:34:06;22.30;99.90
52267;DHT22;38223;50.940;4.034;2022-08-19T10:36:38;22.40;99.90
52267;DHT22;38223;50.940;4.034;2022-08-19T10:39:11;22.50;99.90
52267;DHT22;38223;50.940;4.034;2022-08-19T10:41:42;22.70;99.90
52267;DHT22;38223;50.940;4.034;2022-08-19T10:44:19;22.80;99.90
52267;DHT22;38223;50.940;4.034;2022-08-19T10:46:51;22.90;99.90
52267;DHT22;38223;50.940;4.034;2022-08-19T10:49:26;22.90;99.90
52267;DHT22;38223;50.940;4.034;2022-08-19T10:51:56;22.90;99.90
52267;DHT22;38223;50.940;4.034;2022-08-19T10:54:43;22.90;99.90
52267;DHT22;38223;50.940;4.034;2022-08-19T10:57:34;22.90;99.90
52267;DHT22;38223;50.940;4.034;2022-08-19T11:00:07;23.00;99.90
52267;DHT22;38223;50.940;4.034;2022-08-19T11:02:42;23.00;99.90
52267;DHT22;38223;50.940;4.034;2022-08-19T11:05:15;23.10;99.90
52267;DHT22;38223;50.940;4.034;2022-08-19T11:07:46;23.20;99.90
52267;DHT22;38223;50.940;4.034;2022-08-19T11:10:17;23.30;99.90
52267;DHT22;38223;50.940;4.034;2022-08-19T11:12:54;23.30;99.90
52267;DHT22;38223;50.940;4.034;2022-08-19T11:15:23;23.50;99.90
52267;DHT22;38223;50.940;4.034;2022-08-19T11:17:57;23.60;99.90
52267;DHT22;38223;50.940;4.034;2022-08-19T11:20:32;23.80;99.90
52267;DHT22;38223;50.940;4.034;2022-08-19T11:23:10;23.80;99.90
52267;DHT22;38223;50.940;4.034;2022-08-19T11:25:40;23.80;99.90
52267;DHT22;38223;50.940;4.034;2022-08-19T11:28:13;23.80;99.90
52267;DHT22;38223;50.940;4.034;2022-08-19T11:30:45;23.80;99.90
52267;DHT22;38223;50.940;4.034;2022-08-19T11:33:16;23.70;99.90
52267;DHT22;38223;50.940;4.034;2022-08-19T11:35:45;23.70;99.90
52267;DHT22;38223;50.940;4.034;2022-08-19T11:38:13;23.70;99.90
52267;DHT22;38223;50.940;4.034;2022-08-19T11:40:53;23.70;99.90
52267;DHT22;38223;50.940;4.034;2022-08-19T11:43:17;23.50;99.90
52267;DHT22;38223;50.940;4.034;2022-08-19T11:45:53;23.50;99.90
52267;DHT22;38223;50.940;4.034;2022-08-19T11:48:21;23.50;99.90
52267;DHT22;38223;50.940;4.034;2022-08-19T11:50:55;23.60;99.90
52267;DHT22;38223;50.940;4.034;2022-08-19T11:53:26;23.70;99.90
52267;DHT22;38223;50.940;4.034;2022-08-19T11:55:58;23.80;99.90
52267;DHT22;38223;50.940;4.034;2022-08-19T11:58:30;23.80;99.90
52267;DHT22;38223;50.940;4.034;2022-08-19T12:01:07;23.90;99.90
52267;DHT22;38223;50.940;4.034;2022-08-19T12:03:42;23.90;99.90
52267;DHT22;38223;50.940;4.034;2022-08-19T12:06:19;23.90;99.90
52267;DHT22;38223;50.940;4.034;2022-08-19T12:08:52;23.90;99.90
52267;DHT22;38223;50.940;4.034;2022-08-19T12:11:28;23.80;99.90
52267;DHT22;38223;50.940;4.034;2022-08-19T12:13:57;23.80;99.90
52267;DHT22;38223;50.940;4.034;2022-08-19T12:16:29;24.00;99.90
52267;DHT22;38223;50.940;4.034;2022-08-19T12:19:01;24.20;99.90
52267;DHT22;38223;50.940;4.034;2022-08-19T12:21:35;24.30;99.90
52267;DHT22;38223;50.940;4.034;2022-08-19T12:24:08;24.50;99.90
52267;DHT22;38223;50.940;4.034;2022-08-19T12:26:41;24.50;99.90
52267;DHT22;38223;50.940;4.034;2022-08-19T12:29:13;24.50;99.90
52267;DHT22;38223;50.940;4.034;2022-08-19T12:31:44;24.50;99.90
52267;DHT22;38223;50.940;4.034;2022-08-19T12:34:19;24.50;99.90
52267;DHT22;38223;50.940;4.034;2022-08-19T12:36:49;24.50;99.90
52267;DHT22;38223;50.940;4.034;2022-08-19T12:39:24;24.40;99.90
52267;DHT22;38223;50.940;4.034;2022-08-19T12:41:56;24.40;99.90
52267;DHT22;38223;50.940;4.034;2022-08-19T12:44:26;24.40;99.90
52267;DHT22;38223;50.940;4.034;2022-08-19T12:47:01;24.30;99.90
52267;DHT22;38223;50.940;4.034;2022-08-19T12:49:31;24.30;99.90
52267;DHT22;38223;50.940;4.034;2022-08-19T12:52:05;24.30;99.90
52267;DHT22;38223;50.940;4.034;2022-08-19T12:54:36;24.30;99.90
52267;DHT22;38223;50.940;4.034;2022-08-19T12:57:09;24.20;99.90
52267;DHT22;38223;50.940;4.034;2022-08-19T12:59:40;24.20;99.90
52267;DHT22;38223;50.940;4.034;2022-08-19T13:02:12;24.20;99.90
52267;DHT22;38223;50.940;4.034;2022-08-19T13:05:04;24.10;99.90
52267;DHT22;38223;50.940;4.034;2022-08-19T13:07:39;24.00;99.90
52267;DHT22;38223;50.940;4.034;2022-08-19T13:13:14;24.10;99.90
52267;DHT22;38223;50.940;4.034;2022-08-19T13:15:48;24.30;99.90
52267;DHT22;38223;50.940;4.034;2022-08-19T13:18:19;24.40;99.90
52267;DHT22;38223;50.940;4.034;2022-08-19T13:20:52;24.60;99.90
52267;DHT22;38223;50.940;4.034;2022-08-19T13:23:21;24.80;99.90
52267;DHT22;38223;50.940;4.034;2022-08-19T13:26:04;24.80;99.90
52267;DHT22;38223;50.940;4.034;2022-08-19T13:28:38;24.80;99.90
52267;DHT22;38223;50.940;4.034;2022-08-19T13:31:17;24.80;99.90
52267;DHT22;38223;50.940;4.034;2022-08-19T13:34:07;24.70;99.90
52267;DHT22;38223;50.940;4.034;2022-08-19T13:36:40;24.80;99.90
52267;DHT22;38223;50.940;4.034;2022-08-19T13:39:13;24.80;99.90
52267;DHT22;38223;50.940;4.034;2022-08-19T13:41:43;24.90;99.90
52267;DHT22;38223;50.940;4.034;2022-08-19T13:44:16;24.70;99.90
52267;DHT22;38223;50.940;4.034;2022-08-19T13:46:49;24.60;99.90
52267;DHT22;38223;50.940;4.034;2022-08-19T13:49:20;24.60;99.90
52267;DHT22;38223;50.940;4.034;2022-08-19T13:51:53;24.20;99.90
52267;DHT22;38223;50.940;4.034;2022-08-19T13:54:28;24.00;99.90
52267;DHT22;38223;50.940;4.034;2022-08-19T13:57:04;23.50;99.90
52267;DHT22;38223;50.940;4.034;2022-08-19T13:59:36;23.20;99.90
52267;DHT22;38223;50.940;4.034;2022-08-19T14:02:08;23.00;99.90
52267;DHT22;38223;50.940;4.034;2022-08-19T14:04:43;22.90;99.90
52267;DHT22;38223;50.940;4.034;2022-08-19T14:07:16;22.90;99.90
52267;DHT22;38223;50.940;4.034;2022-08-19T14:09:47;23.10;99.90
52267;DHT22;38223;50.940;4.034;2022-08-19T14:12:20;23.20;99.90
52267;DHT22;38223;50.940;4.034;2022-08-19T14:14:51;23.50;99.90
52267;DHT22;38223;50.940;4.034;2022-08-19T14:17:23;23.70;99.90
52267;DHT22;38223;50.940;4.034;2022-08-19T14:20:03;23.90;99.90
52267;DHT22;38223;50.940;4.034;2022-08-19T14:22:37;24.10;99.90
52267;DHT22;38223;50.940;4.034;2022-08-19T14:25:12;24.20;99.90
52267;DHT22;38223;50.940;4.034;2022-08-19T14:27:44;24.30;99.90
52267;DHT22;38223;50.940;4.034;2022-08-19T14:30:22;24.50;99.90
52267;DHT22;38223;50.940;4.034;2022-08-19T14:32:55;24.60;99.90
52267;DHT22;38223;50.940;4.034;2022-08-19T14:35:26;24.60;99.90
52267;DHT22;38223;50.940;4.034;2022-08-19T14:38:00;24.80;99.90
52267;DHT22;38223;50.940;4.034;2022-08-19T14:40:33;24.90;99.90
52267;DHT22;38223;50.940;4.034;2022-08-19T14:43:06;24.90;99.90
52267;DHT22;38223;50.940;4.034;2022-08-19T14:45:39;24.80;99.90
52267;DHT22;38223;50.940;4.034;2022-08-19T14:48:12;24.70;99.90
52267;DHT22;38223;50.940;4.034;2022-08-19T14:50:46;24.80;99.90
52267;DHT22;38223;50.940;4.034;2022-08-19T14:53:17;24.80;99.90
52267;DHT22;38223;50.940;4.034;2022-08-19T14:55:49;24.50;99.90
52267;DHT22;38223;50.940;4.034;2022-08-19T14:58:23;24.10;99.90
52267;DHT22;38223;50.940;4.034;2022-08-19T15:00:57;24.10;99.90
52267;DHT22;38223;50.940;4.034;2022-08-19T15:03:28;24.60;99.90
52267;DHT22;38223;50.940;4.034;2022-08-19T15:06:02;24.90;99.90
52267;DHT22;38223;50.940;4.034;2022-08-19T15:08:37;25.10;99.90
52267;DHT22;38223;50.940;4.034;2022-08-19T15:11:18;24.90;99.90
52267;DHT22;38223;50.940;4.034;2022-08-19T15:13:49;24.90;99.90
52267;DHT22;38223;50.940;4.034;2022-08-19T15:16:24;25.40;99.90
52267;DHT22;38223;50.940;4.034;2022-08-19T15:18:56;26.40;99.90
52267;DHT22;38223;50.940;4.034;2022-08-19T15:21:30;26.90;99.90
52267;DHT22;38223;50.940;4.034;2022-08-19T15:24:06;26.70;99.90
52267;DHT22;38223;50.940;4.034;2022-08-19T15:26:40;26.40;99.90
52267;DHT22;38223;50.940;4.034;2022-08-19T15:29:11;26.10;99.90
52267;DHT22;38223;50.940;4.034;2022-08-19T15:31:44;25.70;99.90
52267;DHT22;38223;50.940;4.034;2022-08-19T15:34:17;25.50;99.90
52267;DHT22;38223;50.940;4.034;2022-08-19T15:36:56;25.30;99.90
52267;DHT22;38223;50.940;4.034;2022-08-19T15:39:23;25.50;99.90
52267;DHT22;38223;50.940;4.034;2022-08-19T15:41:54;25.60;99.90
52267;DHT22;38223;50.940;4.034;2022-08-19T15:44:25;25.80;99.90
52267;DHT22;38223;50.940;4.034;2022-08-19T15:46:59;25.90;99.90
52267;DHT22;38223;50.940;4.034;2022-08-19T15:49:32;25.90;99.90
52267;DHT22;38223;50.940;4.034;2022-08-19T15:52:04;26.10;99.90
52267;DHT22;38223;50.940;4.034;2022-08-19T15:54:34;26.10;99.90
52267;DHT22;38223;50.940;4.034;2022-08-19T15:57:10;25.90;99.90
52267;DHT22;38223;50.940;4.034;2022-08-19T15:59:56;25.90;99.90
52267;DHT22;38223;50.940;4.034;2022-08-19T16:02:46;25.70;99.90
52267;DHT22;38223;50.940;4.034;2022-08-19T16:05:33;25.60;99.90
52267;DHT22;38223;50.940;4.034;2022-08-19T16:08:20;25.70;99.90
52267;DHT22;38223;50.940;4.034;2022-08-19T16:10:51;25.60;99.90
52267;DHT22;38223;50.940;4.034;2022-08-19T16:13:22;25.70;99.90
52267;DHT22;38223;50.940;4.034;2022-08-19T16:15:53;25.60;99.90
52267;DHT22;38223;50.940;4.034;2022-08-19T16:18:25;25.30;99.90
52267;DHT22;38223;50.940;4.034;2022-08-19T16:20:56;25.40;99.90
52267;DHT22;38223;50.940;4.034;2022-08-19T16:23:30;25.60;99.90